sensor_id;sensor_type;location;lat;lon;timestamp;temperature;humidity
67603;DHT22;54417;47.454;18.918;2023-04-06T00:04:38;-2.65;75.68
67603;DHT22;54417;47.454;18.918;2023-04-06T00:10:04;-2.79;76.32
67603;DHT22;54417;47.454;18.918;2023-04-06T00:15:28;-2.96;76.99
67603;DHT22;54417;47.454;18.918;2023-04-06T00:20:52;-3.13;77.44
67603;DHT22;54417;47.454;18.918;2023-04-06T00:26:17;-3.20;77.96
67603;DHT22;54417;47.454;18.918;2023-04-06T00:31:42;-3.31;77.99
67603;DHT22;54417;47.454;18.918;2023-04-06T00:37:06;-3.41;78.76
67603;DHT22;54417;47.454;18.918;2023-04-06T00:42:31;-3.37;78.79
67603;DHT22;54417;47.454;18.918;2023-04-06T00:47:56;-3.54;78.54
67603;DHT22;54417;47.454;18.918;2023-04-06T00:53:20;-3.48;78.34
67603;DHT22;54417;47.454;18.918;2023-04-06T00:58:46;-3.54;78.56
67603;DHT22;54417;47.454;18.918;2023-04-06T01:04:10;-3.60;78.46
67603;DHT22;54417;47.454;18.918;2023-04-06T01:09:36;-3.58;78.52
67603;DHT22;54417;47.454;18.918;2023-04-06T01:15:12;-3.60;77.60
67603;DHT22;54417;47.454;18.918;2023-04-06T01:20:40;-3.29;76.60
67603;DHT22;54417;47.454;18.918;2023-04-06T01:26:05;-3.20;75.73
67603;DHT22;54417;47.454;18.918;2023-04-06T01:31:30;-3.03;75.60
67603;DHT22;54417;47.454;18.918;2023-04-06T01:36:54;-2.92;75.21
67603;DHT22;54417;47.454;18.918;2023-04-06T01:42:23;-2.99;75.20
67603;DHT22;54417;47.454;18.918;2023-04-06T01:47:48;-3.09;75.82
67603;DHT22;54417;47.454;18.918;2023-04-06T01:53:15;-3.09;76.14
67603;DHT22;54417;47.454;18.918;2023-04-06T01:58:42;-3.06;76.23
67603;DHT22;54417;47.454;18.918;2023-04-06T02:04:09;-3.20;76.94
67603;DHT22;54417;47.454;18.918;2023-04-06T02:09:33;-3.40;77.27
67603;DHT22;54417;47.454;18.918;2023-04-06T02:14:59;-3.67;77.91
67603;DHT22;54417;47.454;18.918;2023-04-06T02:20:23;-3.86;78.64
67603;DHT22;54417;47.454;18.918;2023-04-06T02:25:47;-4.07;79.51
67603;DHT22;54417;47.454;18.918;2023-04-06T02:31:12;-4.17;80.09
67603;DHT22;54417;47.454;18.918;2023-04-06T02:36:39;-4.23;80.24
67603;DHT22;54417;47.454;18.918;2023-04-06T02:42:03;-4.24;80.23
67603;DHT22;54417;47.454;18.918;2023-04-06T02:47:29;-4.29;80.41
67603;DHT22;54417;47.454;18.918;2023-04-06T02:52:53;-4.40;81.01
67603;DHT22;54417;47.454;18.918;2023-04-06T02:58:18;-4.47;81.85
67603;DHT22;54417;47.454;18.918;2023-04-06T03:03:48;-4.56;82.07
67603;DHT22;54417;47.454;18.918;2023-04-06T03:09:18;-4.61;82.34
67603;DHT22;54417;47.454;18.918;2023-04-06T03:14:42;-4.61;82.49
67603;DHT22;54417;47.454;18.918;2023-04-06T03:20:08;-4.54;82.38
67603;DHT22;54417;47.454;18.918;2023-04-06T03:25:33;-4.49;81.80
67603;DHT22;54417;47.454;18.918;2023-04-06T03:31:00;-4.49;82.10
67603;DHT22;54417;47.454;18.918;2023-04-06T03:37:00;-4.41;81.68
67603;DHT22;54417;47.454;18.918;2023-04-06T03:42:36;-4.43;81.51
67603;DHT22;54417;47.454;18.918;2023-04-06T03:48:06;-4.47;81.67
67603;DHT22;54417;47.454;18.918;2023-04-06T03:53:34;-4.53;81.69
67603;DHT22;54417;47.454;18.918;2023-04-06T03:58:59;-4.65;82.35
67603;DHT22;54417;47.454;18.918;2023-04-06T04:04:24;-4.75;82.51
67603;DHT22;54417;47.454;18.918;2023-04-06T04:09:49;-4.78;82.56
67603;DHT22;54417;47.454;18.918;2023-04-06T04:15:13;-4.78;82.72
67603;DHT22;54417;47.454;18.918;2023-04-06T04:20:37;-4.60;82.65
67603;DHT22;54417;47.454;18.918;2023-04-06T04:26:05;-4.57;82.41
67603;DHT22;54417;47.454;18.918;2023-04-06T04:31:29;-4.50;82.38
67603;DHT22;54417;47.454;18.918;2023-04-06T04:36:57;-4.37;82.14
67603;DHT22;54417;47.454;18.918;2023-04-06T04:42:37;-4.22;81.64
67603;DHT22;54417;47.454;18.918;2023-04-06T04:48:06;-3.89;80.59
67603;DHT22;54417;47.454;18.918;2023-04-06T04:53:43;-3.48;79.15
67603;DHT22;54417;47.454;18.918;2023-04-06T04:59:22;-3.16;77.89
67603;DHT22;54417;47.454;18.918;2023-04-06T05:04:53;-2.93;77.62
67603;DHT22;54417;47.454;18.918;2023-04-06T05:10:20;-2.72;77.26
67603;DHT22;54417;47.454;18.918;2023-04-06T05:15:53;-2.50;76.78
67603;DHT22;54417;47.454;18.918;2023-04-06T05:21:24;-2.32;76.87
67603;DHT22;54417;47.454;18.918;2023-04-06T05:26:56;-2.05;76.66
67603;DHT22;54417;47.454;18.918;2023-04-06T05:32:22;-1.72;74.93
67603;DHT22;54417;47.454;18.918;2023-04-06T05:37:48;-1.51;73.99
67603;DHT22;54417;47.454;18.918;2023-04-06T05:43:15;-1.18;72.65
67603;DHT22;54417;47.454;18.918;2023-04-06T05:48:48;-0.85;71.50
67603;DHT22;54417;47.454;18.918;2023-04-06T05:54:15;-0.58;70.74
67603;DHT22;54417;47.454;18.918;2023-04-06T05:59:39;-0.34;69.71
67603;DHT22;54417;47.454;18.918;2023-04-06T06:05:08;-0.15;68.19
67603;DHT22;54417;47.454;18.918;2023-04-06T06:10:34;0.18;68.91
67603;DHT22;54417;47.454;18.918;2023-04-06T06:15:58;0.52;66.59
67603;DHT22;54417;47.454;18.918;2023-04-06T06:21:24;0.80;64.61
67603;DHT22;54417;47.454;18.918;2023-04-06T06:26:48;1.20;62.70
67603;DHT22;54417;47.454;18.918;2023-04-06T06:32:14;1.59;62.49
67603;DHT22;54417;47.454;18.918;2023-04-06T06:37:43;2.12;61.05
67603;DHT22;54417;47.454;18.918;2023-04-06T06:43:11;2.48;57.74
67603;DHT22;54417;47.454;18.918;2023-04-06T06:48:45;2.60;55.45
67603;DHT22;54417;47.454;18.918;2023-04-06T06:54:10;2.94;55.40
67603;DHT22;54417;47.454;18.918;2023-04-06T06:59:34;3.25;52.88
67603;DHT22;54417;47.454;18.918;2023-04-06T07:04:59;3.29;53.14
67603;DHT22;54417;47.454;18.918;2023-04-06T07:10:29;3.33;54.53
67603;DHT22;54417;47.454;18.918;2023-04-06T07:15:53;3.61;52.62
67603;DHT22;54417;47.454;18.918;2023-04-06T07:21:17;3.74;52.86
67603;DHT22;54417;47.454;18.918;2023-04-06T07:26:43;3.87;51.89
67603;DHT22;54417;47.454;18.918;2023-04-06T07:32:07;4.25;51.78
67603;DHT22;54417;47.454;18.918;2023-04-06T07:37:32;4.33;50.78
67603;DHT22;54417;47.454;18.918;2023-04-06T07:42:58;4.57;52.46
67603;DHT22;54417;47.454;18.918;2023-04-06T07:48:22;4.53;48.93
67603;DHT22;54417;47.454;18.918;2023-04-06T07:53:46;5.08;49.73
67603;DHT22;54417;47.454;18.918;2023-04-06T07:59:11;5.34;48.39
67603;DHT22;54417;47.454;18.918;2023-04-06T08:04:36;5.49;48.31
67603;DHT22;54417;47.454;18.918;2023-04-06T08:10:00;5.15;48.39
67603;DHT22;54417;47.454;18.918;2023-04-06T08:15:25;5.24;48.15
67603;DHT22;54417;47.454;18.918;2023-04-06T08:20:49;5.42;48.40
67603;DHT22;54417;47.454;18.918;2023-04-06T08:26:13;5.60;46.89
67603;DHT22;54417;47.454;18.918;2023-04-06T08:31:38;5.69;47.88
67603;DHT22;54417;47.454;18.918;2023-04-06T08:37:02;5.67;47.31
67603;DHT22;54417;47.454;18.918;2023-04-06T08:42:28;5.97;46.60
67603;DHT22;54417;47.454;18.918;2023-04-06T08:47:57;5.90;45.86
67603;DHT22;54417;47.454;18.918;2023-04-06T08:53:24;6.21;45.94
67603;DHT22;54417;47.454;18.918;2023-04-06T08:58:48;6.27;46.14
67603;DHT22;54417;47.454;18.918;2023-04-06T09:04:15;6.41;45.84
67603;DHT22;54417;47.454;18.918;2023-04-06T09:09:40;6.34;45.53
67603;DHT22;54417;47.454;18.918;2023-04-06T09:15:18;6.83;45.25
67603;DHT22;54417;47.454;18.918;2023-04-06T09:20:57;7.32;42.74
67603;DHT22;54417;47.454;18.918;2023-04-06T09:26:20;7.04;40.72
67603;DHT22;54417;47.454;18.918;2023-04-06T09:31:45;6.90;41.49
67603;DHT22;54417;47.454;18.918;2023-04-06T09:37:14;7.48;40.95
67603;DHT22;54417;47.454;18.918;2023-04-06T09:42:40;7.82;39.86
67603;DHT22;54417;47.454;18.918;2023-04-06T09:48:05;7.62;38.96
67603;DHT22;54417;47.454;18.918;2023-04-06T09:53:31;7.63;39.99
67603;DHT22;54417;47.454;18.918;2023-04-06T09:59:02;7.86;40.05
67603;DHT22;54417;47.454;18.918;2023-04-06T10:04:37;7.92;38.52
67603;DHT22;54417;47.454;18.918;2023-04-06T10:10:06;8.06;37.96
67603;DHT22;54417;47.454;18.918;2023-04-06T10:15:31;8.19;37.88
67603;DHT22;54417;47.454;18.918;2023-04-06T10:20:57;8.17;38.24
67603;DHT22;54417;47.454;18.918;2023-04-06T10:26:22;8.13;36.04
67603;DHT22;54417;47.454;18.918;2023-04-06T10:31:48;8.68;36.76
67603;DHT22;54417;47.454;18.918;2023-04-06T10:37:13;8.96;37.08
67603;DHT22;54417;47.454;18.918;2023-04-06T10:42:38;8.92;36.43
67603;DHT22;54417;47.454;18.918;2023-04-06T10:48:13;8.73;37.01
67603;DHT22;54417;47.454;18.918;2023-04-06T10:53:37;9.09;36.05
67603;DHT22;54417;47.454;18.918;2023-04-06T10:59:03;9.36;35.28
67603;DHT22;54417;47.454;18.918;2023-04-06T11:04:27;9.03;35.58
67603;DHT22;54417;47.454;18.918;2023-04-06T11:09:53;9.37;36.39
67603;DHT22;54417;47.454;18.918;2023-04-06T11:15:40;9.65;34.86
67603;DHT22;54417;47.454;18.918;2023-04-06T11:21:05;9.64;36.85
67603;DHT22;54417;47.454;18.918;2023-04-06T11:26:28;9.55;37.09
67603;DHT22;54417;47.454;18.918;2023-04-06T11:31:58;9.61;37.91
67603;DHT22;54417;47.454;18.918;2023-04-06T11:37:26;9.03;38.54
67603;DHT22;54417;47.454;18.918;2023-04-06T11:42:54;9.43;37.46
67603;DHT22;54417;47.454;18.918;2023-04-06T11:48:20;10.03;35.67
67603;DHT22;54417;47.454;18.918;2023-04-06T11:53:47;10.02;35.24
67603;DHT22;54417;47.454;18.918;2023-04-06T11:59:11;10.08;35.56
67603;DHT22;54417;47.454;18.918;2023-04-06T12:04:37;9.73;36.47
67603;DHT22;54417;47.454;18.918;2023-04-06T12:10:02;9.73;36.90
67603;DHT22;54417;47.454;18.918;2023-04-06T12:15:26;9.47;36.30
67603;DHT22;54417;47.454;18.918;2023-04-06T12:20:51;9.40;37.51
67603;DHT22;54417;47.454;18.918;2023-04-06T12:26:15;8.64;37.10
67603;DHT22;54417;47.454;18.918;2023-04-06T12:31:39;8.71;37.82
67603;DHT22;54417;47.454;18.918;2023-04-06T12:37:07;8.96;37.42
67603;DHT22;54417;47.454;18.918;2023-04-06T12:42:30;8.93;36.91
67603;DHT22;54417;47.454;18.918;2023-04-06T12:47:54;9.40;36.64
67603;DHT22;54417;47.454;18.918;2023-04-06T12:53:19;9.81;35.96
67603;DHT22;54417;47.454;18.918;2023-04-06T12:58:44;9.84;35.95
67603;DHT22;54417;47.454;18.918;2023-04-06T13:04:08;9.82;36.49
67603;DHT22;54417;47.454;18.918;2023-04-06T13:09:33;9.55;35.84
67603;DHT22;54417;47.454;18.918;2023-04-06T13:14:57;9.20;36.09
67603;DHT22;54417;47.454;18.918;2023-04-06T13:20:21;9.03;36.30
67603;DHT22;54417;47.454;18.918;2023-04-06T13:25:48;8.96;36.46
67603;DHT22;54417;47.454;18.918;2023-04-06T13:31:20;8.81;37.31
67603;DHT22;54417;47.454;18.918;2023-04-06T13:36:44;8.31;38.58
67603;DHT22;54417;47.454;18.918;2023-04-06T13:42:09;8.29;39.49
67603;DHT22;54417;47.454;18.918;2023-04-06T13:47:33;8.40;39.46
67603;DHT22;54417;47.454;18.918;2023-04-06T13:52:57;8.40;39.68
67603;DHT22;54417;47.454;18.918;2023-04-06T13:58:22;8.13;40.71
67603;DHT22;54417;47.454;18.918;2023-04-06T14:03:48;8.34;40.13
67603;DHT22;54417;47.454;18.918;2023-04-06T14:09:12;8.29;40.95
67603;DHT22;54417;47.454;18.918;2023-04-06T14:14:37;8.20;41.52
67603;DHT22;54417;47.454;18.918;2023-04-06T14:20:01;8.19;42.26
67603;DHT22;54417;47.454;18.918;2023-04-06T14:25:25;8.06;42.18
67603;DHT22;54417;47.454;18.918;2023-04-06T14:30:50;8.26;42.25
67603;DHT22;54417;47.454;18.918;2023-04-06T14:36:14;8.07;42.73
67603;DHT22;54417;47.454;18.918;2023-04-06T14:41:38;7.87;43.17
67603;DHT22;54417;47.454;18.918;2023-04-06T14:47:03;8.03;43.79
67603;DHT22;54417;47.454;18.918;2023-04-06T14:52:28;7.85;45.11
67603;DHT22;54417;47.454;18.918;2023-04-06T14:57:54;7.30;46.25
67603;DHT22;54417;47.454;18.918;2023-04-06T15:03:19;7.07;47.15
67603;DHT22;54417;47.454;18.918;2023-04-06T15:08:44;7.11;49.42
67603;DHT22;54417;47.454;18.918;2023-04-06T15:14:07;6.93;50.80
67603;DHT22;54417;47.454;18.918;2023-04-06T15:19:33;6.77;52.18
67603;DHT22;54417;47.454;18.918;2023-04-06T15:24:57;6.68;51.65
67603;DHT22;54417;47.454;18.918;2023-04-06T15:30:21;6.75;51.04
67603;DHT22;54417;47.454;18.918;2023-04-06T15:35:46;6.99;50.31
67603;DHT22;54417;47.454;18.918;2023-04-06T15:41:10;7.00;50.23
67603;DHT22;54417;47.454;18.918;2023-04-06T15:46:35;6.85;52.73
67603;DHT22;54417;47.454;18.918;2023-04-06T15:52:00;6.93;53.31
67603;DHT22;54417;47.454;18.918;2023-04-06T15:57:24;6.55;54.36
67603;DHT22;54417;47.454;18.918;2023-04-06T16:02:48;6.41;55.03
67603;DHT22;54417;47.454;18.918;2023-04-06T16:08:14;6.13;55.62
67603;DHT22;54417;47.454;18.918;2023-04-06T16:13:38;6.03;56.39
67603;DHT22;54417;47.454;18.918;2023-04-06T16:19:06;5.80;57.14
67603;DHT22;54417;47.454;18.918;2023-04-06T16:24:31;5.55;59.92
67603;DHT22;54417;47.454;18.918;2023-04-06T16:29:55;5.31;62.46
67603;DHT22;54417;47.454;18.918;2023-04-06T16:35:19;4.94;66.68
67603;DHT22;54417;47.454;18.918;2023-04-06T16:40:45;4.22;72.29
67603;DHT22;54417;47.454;18.918;2023-04-06T16:46:09;4.08;72.65
67603;DHT22;54417;47.454;18.918;2023-04-06T16:51:34;3.91;73.31
67603;DHT22;54417;47.454;18.918;2023-04-06T16:57:00;3.64;76.19
67603;DHT22;54417;47.454;18.918;2023-04-06T17:02:26;3.26;78.64
67603;DHT22;54417;47.454;18.918;2023-04-06T17:07:50;3.11;79.88
67603;DHT22;54417;47.454;18.918;2023-04-06T17:13:16;3.01;80.15
67603;DHT22;54417;47.454;18.918;2023-04-06T17:18:39;2.95;81.28
67603;DHT22;54417;47.454;18.918;2023-04-06T17:24:04;2.83;81.52
67603;DHT22;54417;47.454;18.918;2023-04-06T17:29:29;2.78;82.05
67603;DHT22;54417;47.454;18.918;2023-04-06T17:34:53;2.74;82.78
67603;DHT22;54417;47.454;18.918;2023-04-06T17:40:17;2.64;82.97
67603;DHT22;54417;47.454;18.918;2023-04-06T17:45:43;2.54;83.78
67603;DHT22;54417;47.454;18.918;2023-04-06T17:51:07;2.44;84.37
67603;DHT22;54417;47.454;18.918;2023-04-06T17:56:31;2.32;84.69
67603;DHT22;54417;47.454;18.918;2023-04-06T18:01:56;2.30;85.20
67603;DHT22;54417;47.454;18.918;2023-04-06T18:07:20;2.22;85.66
67603;DHT22;54417;47.454;18.918;2023-04-06T18:12:44;2.30;84.68
67603;DHT22;54417;47.454;18.918;2023-04-06T18:18:09;2.25;84.80
67603;DHT22;54417;47.454;18.918;2023-04-06T18:23:33;2.23;85.36
67603;DHT22;54417;47.454;18.918;2023-04-06T18:28:59;2.27;84.53
67603;DHT22;54417;47.454;18.918;2023-04-06T18:34:24;2.29;83.96
67603;DHT22;54417;47.454;18.918;2023-04-06T18:39:48;2.34;83.96
67603;DHT22;54417;47.454;18.918;2023-04-06T18:45:12;2.36;84.02
67603;DHT22;54417;47.454;18.918;2023-04-06T18:50:37;2.38;83.54
67603;DHT22;54417;47.454;18.918;2023-04-06T18:56:01;2.46;83.11
67603;DHT22;54417;47.454;18.918;2023-04-06T19:01:27;2.54;83.04
67603;DHT22;54417;47.454;18.918;2023-04-06T19:06:53;2.60;82.29
67603;DHT22;54417;47.454;18.918;2023-04-06T19:12:17;2.67;81.99
67603;DHT22;54417;47.454;18.918;2023-04-06T19:17:41;2.70;81.97
67603;DHT22;54417;47.454;18.918;2023-04-06T19:23:06;2.77;81.72
67603;DHT22;54417;47.454;18.918;2023-04-06T19:28:30;2.77;81.65
67603;DHT22;54417;47.454;18.918;2023-04-06T19:33:54;2.62;82.90
67603;DHT22;54417;47.454;18.918;2023-04-06T19:39:20;2.46;83.92
67603;DHT22;54417;47.454;18.918;2023-04-06T19:44:43;2.36;84.47
67603;DHT22;54417;47.454;18.918;2023-04-06T19:50:08;2.16;85.76
67603;DHT22;54417;47.454;18.918;2023-04-06T19:55:34;2.17;85.77
67603;DHT22;54417;47.454;18.918;2023-04-06T20:00:58;2.22;84.69
67603;DHT22;54417;47.454;18.918;2023-04-06T20:06:22;2.23;84.50
67603;DHT22;54417;47.454;18.918;2023-04-06T20:11:48;2.30;84.10
67603;DHT22;54417;47.454;18.918;2023-04-06T20:17:12;2.38;83.13
67603;DHT22;54417;47.454;18.918;2023-04-06T20:22:35;2.46;82.00
67603;DHT22;54417;47.454;18.918;2023-04-06T20:28:01;2.50;81.72
67603;DHT22;54417;47.454;18.918;2023-04-06T20:33:25;2.48;81.65
67603;DHT22;54417;47.454;18.918;2023-04-06T20:38:49;2.50;81.37
67603;DHT22;54417;47.454;18.918;2023-04-06T20:44:14;2.43;81.82
67603;DHT22;54417;47.454;18.918;2023-04-06T20:49:39;2.44;81.85
67603;DHT22;54417;47.454;18.918;2023-04-06T20:55:03;2.47;82.35
67603;DHT22;54417;47.454;18.918;2023-04-06T21:00:31;2.48;82.56
67603;DHT22;54417;47.454;18.918;2023-04-06T21:05:55;2.41;82.70
67603;DHT22;54417;47.454;18.918;2023-04-06T21:11:19;2.47;82.70
67603;DHT22;54417;47.454;18.918;2023-04-06T21:16:45;2.51;82.55
67603;DHT22;54417;47.454;18.918;2023-04-06T21:22:08;2.47;82.70
67603;DHT22;54417;47.454;18.918;2023-04-06T21:27:32;2.48;82.70
67603;DHT22;54417;47.454;18.918;2023-04-06T21:32:57;2.41;82.41
67603;DHT22;54417;47.454;18.918;2023-04-06T21:38:21;2.46;82.16
67603;DHT22;54417;47.454;18.918;2023-04-06T21:43:45;2.48;82.68
67603;DHT22;54417;47.454;18.918;2023-04-06T21:49:10;2.48;82.49
67603;DHT22;54417;47.454;18.918;2023-04-06T21:54:34;2.48;82.43
67603;DHT22;54417;47.454;18.918;2023-04-06T21:59:58;2.55;81.91
67603;DHT22;54417;47.454;18.918;2023-04-06T22:05:23;2.53;81.75
67603;DHT22;54417;47.454;18.918;2023-04-06T22:10:47;2.54;81.25
67603;DHT22;54417;47.454;18.918;2023-04-06T22:16:11;2.60;81.00
67603;DHT22;54417;47.454;18.918;2023-04-06T22:21:38;2.65;80.87
67603;DHT22;54417;47.454;18.918;2023-04-06T22:27:02;2.60;80.85
67603;DHT22;54417;47.454;18.918;2023-04-06T22:32:25;2.58;81.21
67603;DHT22;54417;47.454;18.918;2023-04-06T22:37:51;2.58;80.99
67603;DHT22;54417;47.454;18.918;2023-04-06T22:43:14;2.60;80.90
67603;DHT22;54417;47.454;18.918;2023-04-06T22:48:38;2.61;80.72
67603;DHT22;54417;47.454;18.918;2023-04-06T22:54:03;2.64;80.21
67603;DHT22;54417;47.454;18.918;2023-04-06T22:59:27;2.64;80.27
67603;DHT22;54417;47.454;18.918;2023-04-06T23:04:52;2.65;80.06
67603;DHT22;54417;47.454;18.918;2023-04-06T23:10:17;2.67;80.41
67603;DHT22;54417;47.454;18.918;2023-04-06T23:15:42;2.62;80.09
67603;DHT22;54417;47.454;18.918;2023-04-06T23:21:06;2.62;80.31
67603;DHT22;54417;47.454;18.918;2023-04-06T23:26:31;2.60;81.01
67603;DHT22;54417;47.454;18.918;2023-04-06T23:31:55;2.55;81.49
67603;DHT22;54417;47.454;18.918;2023-04-06T23:37:19;2.57;81.32
67603;DHT22;54417;47.454;18.918;2023-04-06T23:42:44;2.62;80.34
67603;DHT22;54417;47.454;18.918;2023-04-06T23:48:08;2.62;80.12
67603;DHT22;54417;47.454;18.918;2023-04-06T23:53:32;2.68;80.03
67603;DHT22;54417;47.454;18.918;2023-04-06T23:58:57;2.61;79.74
